sensor_id;sensor_type;location;lat;lon;timestamp;P1;durP1;ratioP1;P2;durP2;ratioP2
77726;SDS011;68312;53.502;10.030;2023-07-22T00:02:18;8.75;;;3.95;;
77726;SDS011;68312;53.502;10.030;2023-07-22T00:04:43;8.80;;;4.55;;
77726;SDS011;68312;53.502;10.030;2023-07-22T00:07:08;7.68;;;4.10;;
77726;SDS011;68312;53.502;10.030;2023-07-22T00:09:34;10.27;;;4.53;;
77726;SDS011;68312;53.502;10.030;2023-07-22T00:12:00;9.27;;;4.18;;
77726;SDS011;68312;53.502;10.030;2023-07-22T00:14:25;9.02;;;4.32;;
77726;SDS011;68312;53.502;10.030;2023-07-22T00:16:51;8.20;;;3.75;;
77726;SDS011;68312;53.502;10.030;2023-07-22T00:19:16;9.70;;;4.65;;
77726;SDS011;68312;53.502;10.030;2023-07-22T00:21:42;9.93;;;4.22;;
77726;SDS011;68312;53.502;10.030;2023-07-22T00:24:07;11.52;;;4.18;;
77726;SDS011;68312;53.502;10.030;2023-07-22T00:26:33;7.53;;;3.97;;
77726;SDS011;68312;53.502;10.030;2023-07-22T00:28:58;14.77;;;4.93;;
77726;SDS011;68312;53.502;10.030;2023-07-22T00:31:24;7.90;;;3.78;;
77726;SDS011;68312;53.502;10.030;2023-07-22T00:37:02;13.82;;;5.07;;
77726;SDS011;68312;53.502;10.030;2023-07-22T00:39:27;13.77;;;4.75;;
77726;SDS011;68312;53.502;10.030;2023-07-22T00:41:53;10.00;;;4.97;;
77726;SDS011;68312;53.502;10.030;2023-07-22T00:44:18;10.73;;;4.18;;
77726;SDS011;68312;53.502;10.030;2023-07-22T00:46:44;10.70;;;5.03;;
77726;SDS011;68312;53.502;10.030;2023-07-22T00:49:09;9.63;;;4.68;;
77726;SDS011;68312;53.502;10.030;2023-07-22T00:51:37;9.57;;;4.55;;
77726;SDS011;68312;53.502;10.030;2023-07-22T00:54:02;10.05;;;4.70;;
77726;SDS011;68312;53.502;10.030;2023-07-22T00:56:30;11.32;;;4.60;;
77726;SDS011;68312;53.502;10.030;2023-07-22T00:59:01;11.77;;;5.13;;
77726;SDS011;68312;53.502;10.030;2023-07-22T01:01:27;9.57;;;4.30;;
77726;SDS011;68312;53.502;10.030;2023-07-22T01:03:52;9.70;;;4.38;;
77726;SDS011;68312;53.502;10.030;2023-07-22T01:06:18;13.45;;;4.97;;
77726;SDS011;68312;53.502;10.030;2023-07-22T01:08:45;8.73;;;4.70;;
77726;SDS011;68312;53.502;10.030;2023-07-22T01:11:11;7.25;;;3.50;;
77726;SDS011;68312;53.502;10.030;2023-07-22T01:13:37;11.80;;;4.65;;
77726;SDS011;68312;53.502;10.030;2023-07-22T01:16:04;8.93;;;4.30;;
77726;SDS011;68312;53.502;10.030;2023-07-22T01:18:31;12.75;;;4.57;;
77726;SDS011;68312;53.502;10.030;2023-07-22T01:21:00;9.25;;;4.35;;
77726;SDS011;68312;53.502;10.030;2023-07-22T01:23:26;9.38;;;4.07;;
77726;SDS011;68312;53.502;10.030;2023-07-22T01:25:57;7.95;;;4.05;;
77726;SDS011;68312;53.502;10.030;2023-07-22T01:28:23;11.93;;;4.60;;
77726;SDS011;68312;53.502;10.030;2023-07-22T01:30:49;9.05;;;3.72;;
77726;SDS011;68312;53.502;10.030;2023-07-22T01:33:14;12.00;;;4.55;;
77726;SDS011;68312;53.502;10.030;2023-07-22T01:35:40;9.38;;;4.10;;
77726;SDS011;68312;53.502;10.030;2023-07-22T01:38:06;9.05;;;4.03;;
77726;SDS011;68312;53.502;10.030;2023-07-22T01:40:33;12.55;;;4.13;;
77726;SDS011;68312;53.502;10.030;2023-07-22T01:42:58;11.52;;;3.67;;
77726;SDS011;68312;53.502;10.030;2023-07-22T01:45:23;9.50;;;4.18;;
77726;SDS011;68312;53.502;10.030;2023-07-22T01:47:49;10.73;;;4.05;;
77726;SDS011;68312;53.502;10.030;2023-07-22T01:50:14;8.93;;;4.10;;
77726;SDS011;68312;53.502;10.030;2023-07-22T01:52:39;10.73;;;4.72;;
77726;SDS011;68312;53.502;10.030;2023-07-22T01:55:05;10.65;;;3.97;;
77726;SDS011;68312;53.502;10.030;2023-07-22T01:57:33;9.07;;;4.53;;
77726;SDS011;68312;53.502;10.030;2023-07-22T01:59:59;10.38;;;3.40;;
77726;SDS011;68312;53.502;10.030;2023-07-22T02:02:24;8.63;;;4.00;;
77726;SDS011;68312;53.502;10.030;2023-07-22T02:04:50;9.38;;;4.40;;
77726;SDS011;68312;53.502;10.030;2023-07-22T02:07:15;11.70;;;4.55;;
77726;SDS011;68312;53.502;10.030;2023-07-22T02:09:40;13.27;;;4.60;;
77726;SDS011;68312;53.502;10.030;2023-07-22T02:12:06;13.57;;;5.10;;
77726;SDS011;68312;53.502;10.030;2023-07-22T02:14:32;13.25;;;4.65;;
77726;SDS011;68312;53.502;10.030;2023-07-22T02:16:58;9.13;;;4.53;;
77726;SDS011;68312;53.502;10.030;2023-07-22T02:19:23;10.60;;;4.57;;
77726;SDS011;68312;53.502;10.030;2023-07-22T02:21:49;14.88;;;4.55;;
77726;SDS011;68312;53.502;10.030;2023-07-22T02:24:14;10.23;;;4.15;;
77726;SDS011;68312;53.502;10.030;2023-07-22T02:26:40;11.50;;;4.75;;
77726;SDS011;68312;53.502;10.030;2023-07-22T02:29:05;9.93;;;4.28;;
77726;SDS011;68312;53.502;10.030;2023-07-22T02:31:31;11.48;;;4.90;;
77726;SDS011;68312;53.502;10.030;2023-07-22T02:33:56;9.50;;;4.45;;
77726;SDS011;68312;53.502;10.030;2023-07-22T02:39:34;15.10;;;4.68;;
77726;SDS011;68312;53.502;10.030;2023-07-22T02:42:00;11.18;;;4.70;;
77726;SDS011;68312;53.502;10.030;2023-07-22T02:44:26;12.10;;;5.00;;
77726;SDS011;68312;53.502;10.030;2023-07-22T02:46:52;11.32;;;4.30;;
77726;SDS011;68312;53.502;10.030;2023-07-22T02:49:17;14.38;;;4.90;;
77726;SDS011;68312;53.502;10.030;2023-07-22T02:51:43;12.55;;;4.43;;
77726;SDS011;68312;53.502;10.030;2023-07-22T02:54:08;11.23;;;4.90;;
77726;SDS011;68312;53.502;10.030;2023-07-22T02:56:34;14.40;;;5.43;;
77726;SDS011;68312;53.502;10.030;2023-07-22T02:58:59;10.88;;;4.20;;
77726;SDS011;68312;53.502;10.030;2023-07-22T03:01:24;13.70;;;4.82;;
77726;SDS011;68312;53.502;10.030;2023-07-22T03:03:50;11.30;;;5.13;;
77726;SDS011;68312;53.502;10.030;2023-07-22T03:06:15;8.75;;;4.22;;
77726;SDS011;68312;53.502;10.030;2023-07-22T03:08:40;12.50;;;4.80;;
77726;SDS011;68312;53.502;10.030;2023-07-22T03:11:06;12.25;;;4.70;;
77726;SDS011;68312;53.502;10.030;2023-07-22T03:13:31;13.27;;;5.35;;
77726;SDS011;68312;53.502;10.030;2023-07-22T03:15:58;12.23;;;5.03;;
77726;SDS011;68312;53.502;10.030;2023-07-22T03:18:24;11.85;;;4.30;;
77726;SDS011;68312;53.502;10.030;2023-07-22T03:20:49;14.18;;;5.38;;
77726;SDS011;68312;53.502;10.030;2023-07-22T03:23:15;11.18;;;4.70;;
77726;SDS011;68312;53.502;10.030;2023-07-22T03:25:40;11.57;;;4.60;;
77726;SDS011;68312;53.502;10.030;2023-07-22T03:28:06;12.40;;;4.82;;
77726;SDS011;68312;53.502;10.030;2023-07-22T03:30:32;12.23;;;4.75;;
77726;SDS011;68312;53.502;10.030;2023-07-22T03:32:58;13.55;;;5.35;;
77726;SDS011;68312;53.502;10.030;2023-07-22T03:35:25;11.90;;;4.13;;
77726;SDS011;68312;53.502;10.030;2023-07-22T03:37:51;11.65;;;4.72;;
77726;SDS011;68312;53.502;10.030;2023-07-22T03:40:17;13.25;;;4.38;;
77726;SDS011;68312;53.502;10.030;2023-07-22T03:42:48;12.23;;;4.72;;
77726;SDS011;68312;53.502;10.030;2023-07-22T03:45:15;13.32;;;5.00;;
77726;SDS011;68312;53.502;10.030;2023-07-22T03:47:43;14.18;;;4.88;;
77726;SDS011;68312;53.502;10.030;2023-07-22T03:50:17;11.43;;;4.35;;
77726;SDS011;68312;53.502;10.030;2023-07-22T03:52:43;11.98;;;4.20;;
77726;SDS011;68312;53.502;10.030;2023-07-22T03:55:08;11.80;;;4.95;;
77726;SDS011;68312;53.502;10.030;2023-07-22T03:57:34;13.10;;;4.95;;
77726;SDS011;68312;53.502;10.030;2023-07-22T03:59:59;10.38;;;4.07;;
77726;SDS011;68312;53.502;10.030;2023-07-22T04:02:25;10.20;;;4.30;;
77726;SDS011;68312;53.502;10.030;2023-07-22T04:04:51;13.13;;;4.22;;
77726;SDS011;68312;53.502;10.030;2023-07-22T04:07:18;13.52;;;4.13;;
77726;SDS011;68312;53.502;10.030;2023-07-22T04:09:44;13.30;;;4.47;;
77726;SDS011;68312;53.502;10.030;2023-07-22T04:12:12;12.10;;;3.95;;
77726;SDS011;68312;53.502;10.030;2023-07-22T04:14:38;8.45;;;4.13;;
77726;SDS011;68312;53.502;10.030;2023-07-22T04:17:04;13.40;;;4.30;;
77726;SDS011;68312;53.502;10.030;2023-07-22T04:19:30;11.68;;;4.10;;
77726;SDS011;68312;53.502;10.030;2023-07-22T04:21:55;10.30;;;3.75;;
77726;SDS011;68312;53.502;10.030;2023-07-22T04:24:21;13.25;;;4.13;;
77726;SDS011;68312;53.502;10.030;2023-07-22T04:26:46;11.00;;;4.50;;
77726;SDS011;68312;53.502;10.030;2023-07-22T04:29:12;7.32;;;3.40;;
77726;SDS011;68312;53.502;10.030;2023-07-22T04:31:38;11.00;;;3.70;;
77726;SDS011;68312;53.502;10.030;2023-07-22T04:34:04;9.18;;;3.60;;
77726;SDS011;68312;53.502;10.030;2023-07-22T04:36:30;8.95;;;3.67;;
77726;SDS011;68312;53.502;10.030;2023-07-22T04:38:56;12.95;;;4.60;;
77726;SDS011;68312;53.502;10.030;2023-07-22T04:41:22;11.27;;;4.15;;
77726;SDS011;68312;53.502;10.030;2023-07-22T04:43:47;14.70;;;4.32;;
77726;SDS011;68312;53.502;10.030;2023-07-22T04:46:13;8.70;;;3.78;;
77726;SDS011;68312;53.502;10.030;2023-07-22T04:48:38;11.88;;;3.80;;
77726;SDS011;68312;53.502;10.030;2023-07-22T04:51:04;11.40;;;3.60;;
77726;SDS011;68312;53.502;10.030;2023-07-22T04:53:29;11.90;;;4.32;;
77726;SDS011;68312;53.502;10.030;2023-07-22T04:55:54;8.90;;;3.70;;
77726;SDS011;68312;53.502;10.030;2023-07-22T04:58:20;10.70;;;4.22;;
77726;SDS011;68312;53.502;10.030;2023-07-22T05:00:46;8.13;;;3.70;;
77726;SDS011;68312;53.502;10.030;2023-07-22T05:03:13;13.20;;;4.32;;
77726;SDS011;68312;53.502;10.030;2023-07-22T05:05:38;10.02;;;4.07;;
77726;SDS011;68312;53.502;10.030;2023-07-22T05:08:04;8.70;;;3.67;;
77726;SDS011;68312;53.502;10.030;2023-07-22T05:10:29;9.63;;;3.83;;
77726;SDS011;68312;53.502;10.030;2023-07-22T05:12:55;9.52;;;3.58;;
77726;SDS011;68312;53.502;10.030;2023-07-22T05:15:22;8.35;;;3.10;;
77726;SDS011;68312;53.502;10.030;2023-07-22T05:17:47;12.13;;;3.35;;
77726;SDS011;68312;53.502;10.030;2023-07-22T05:20:12;7.57;;;3.75;;
77726;SDS011;68312;53.502;10.030;2023-07-22T05:22:38;10.75;;;3.28;;
77726;SDS011;68312;53.502;10.030;2023-07-22T05:25:05;6.93;;;3.50;;
77726;SDS011;68312;53.502;10.030;2023-07-22T05:27:31;8.20;;;3.60;;
77726;SDS011;68312;53.502;10.030;2023-07-22T05:29:57;8.43;;;3.60;;
77726;SDS011;68312;53.502;10.030;2023-07-22T05:32:23;8.10;;;3.58;;
77726;SDS011;68312;53.502;10.030;2023-07-22T05:34:48;8.52;;;3.58;;
77726;SDS011;68312;53.502;10.030;2023-07-22T05:37:13;8.82;;;3.78;;
77726;SDS011;68312;53.502;10.030;2023-07-22T05:39:39;9.38;;;3.53;;
77726;SDS011;68312;53.502;10.030;2023-07-22T05:42:04;8.73;;;3.70;;
77726;SDS011;68312;53.502;10.030;2023-07-22T05:44:30;9.45;;;3.45;;
77726;SDS011;68312;53.502;10.030;2023-07-22T05:46:56;7.43;;;3.20;;
77726;SDS011;68312;53.502;10.030;2023-07-22T05:49:22;8.07;;;3.00;;
77726;SDS011;68312;53.502;10.030;2023-07-22T05:51:47;9.75;;;3.50;;
77726;SDS011;68312;53.502;10.030;2023-07-22T05:54:12;10.55;;;3.05;;
77726;SDS011;68312;53.502;10.030;2023-07-22T05:56:39;6.18;;;3.13;;
77726;SDS011;68312;53.502;10.030;2023-07-22T05:59:05;7.15;;;2.92;;
77726;SDS011;68312;53.502;10.030;2023-07-22T06:01:30;9.57;;;2.75;;
77726;SDS011;68312;53.502;10.030;2023-07-22T06:03:56;7.72;;;3.00;;
77726;SDS011;68312;53.502;10.030;2023-07-22T06:06:21;8.32;;;2.92;;
77726;SDS011;68312;53.502;10.030;2023-07-22T06:08:47;7.95;;;2.85;;
77726;SDS011;68312;53.502;10.030;2023-07-22T06:11:12;8.27;;;2.80;;
77726;SDS011;68312;53.502;10.030;2023-07-22T06:13:37;6.90;;;2.97;;
77726;SDS011;68312;53.502;10.030;2023-07-22T06:16:03;7.35;;;2.60;;
77726;SDS011;68312;53.502;10.030;2023-07-22T06:18:28;6.40;;;2.38;;
77726;SDS011;68312;53.502;10.030;2023-07-22T06:20:54;8.50;;;2.50;;
77726;SDS011;68312;53.502;10.030;2023-07-22T06:23:19;7.43;;;2.97;;
77726;SDS011;68312;53.502;10.030;2023-07-22T06:25:45;7.35;;;2.92;;
77726;SDS011;68312;53.502;10.030;2023-07-22T06:28:10;5.10;;;2.40;;
77726;SDS011;68312;53.502;10.030;2023-07-22T06:30:36;7.38;;;2.78;;
77726;SDS011;68312;53.502;10.030;2023-07-22T06:33:01;8.93;;;2.53;;
77726;SDS011;68312;53.502;10.030;2023-07-22T06:35:27;4.60;;;2.10;;
77726;SDS011;68312;53.502;10.030;2023-07-22T06:37:52;5.80;;;2.53;;
77726;SDS011;68312;53.502;10.030;2023-07-22T06:40:18;8.52;;;2.90;;
77726;SDS011;68312;53.502;10.030;2023-07-22T06:42:43;3.95;;;2.10;;
77726;SDS011;68312;53.502;10.030;2023-07-22T06:48:33;2.75;;;1.70;;
77726;SDS011;68312;53.502;10.030;2023-07-22T06:50:58;6.82;;;2.05;;
77726;SDS011;68312;53.502;10.030;2023-07-22T06:53:24;9.32;;;2.10;;
77726;SDS011;68312;53.502;10.030;2023-07-22T06:55:49;5.88;;;1.85;;
77726;SDS011;68312;53.502;10.030;2023-07-22T06:58:16;3.20;;;1.70;;
77726;SDS011;68312;53.502;10.030;2023-07-22T07:00:42;5.03;;;2.00;;
77726;SDS011;68312;53.502;10.030;2023-07-22T07:03:08;3.47;;;1.40;;
77726;SDS011;68312;53.502;10.030;2023-07-22T07:05:33;4.40;;;1.77;;
77726;SDS011;68312;53.502;10.030;2023-07-22T07:07:59;3.58;;;1.42;;
77726;SDS011;68312;53.502;10.030;2023-07-22T07:10:25;4.40;;;1.77;;
77726;SDS011;68312;53.502;10.030;2023-07-22T07:12:51;4.18;;;1.98;;
77726;SDS011;68312;53.502;10.030;2023-07-22T07:15:16;3.80;;;1.55;;
77726;SDS011;68312;53.502;10.030;2023-07-22T07:17:41;3.85;;;1.85;;
77726;SDS011;68312;53.502;10.030;2023-07-22T07:20:07;4.93;;;1.35;;
77726;SDS011;68312;53.502;10.030;2023-07-22T07:22:33;3.55;;;1.80;;
77726;SDS011;68312;53.502;10.030;2023-07-22T07:24:58;3.70;;;1.42;;
77726;SDS011;68312;53.502;10.030;2023-07-22T07:27:24;4.10;;;1.60;;
77726;SDS011;68312;53.502;10.030;2023-07-22T07:29:49;3.45;;;1.58;;
77726;SDS011;68312;53.502;10.030;2023-07-22T07:32:14;4.50;;;1.48;;
77726;SDS011;68312;53.502;10.030;2023-07-22T07:34:40;4.90;;;1.40;;
77726;SDS011;68312;53.502;10.030;2023-07-22T07:37:05;3.08;;;1.35;;
77726;SDS011;68312;53.502;10.030;2023-07-22T07:39:30;7.63;;;1.65;;
77726;SDS011;68312;53.502;10.030;2023-07-22T07:41:56;3.85;;;1.45;;
77726;SDS011;68312;53.502;10.030;2023-07-22T07:44:21;4.60;;;1.50;;
77726;SDS011;68312;53.502;10.030;2023-07-22T07:46:47;4.28;;;2.00;;
77726;SDS011;68312;53.502;10.030;2023-07-22T07:49:12;2.72;;;1.50;;
77726;SDS011;68312;53.502;10.030;2023-07-22T07:51:37;4.00;;;1.58;;
77726;SDS011;68312;53.502;10.030;2023-07-22T07:54:03;5.75;;;2.10;;
77726;SDS011;68312;53.502;10.030;2023-07-22T07:56:29;5.05;;;1.80;;
77726;SDS011;68312;53.502;10.030;2023-07-22T07:58:54;5.18;;;1.65;;
77726;SDS011;68312;53.502;10.030;2023-07-22T08:01:20;3.83;;;1.65;;
77726;SDS011;68312;53.502;10.030;2023-07-22T08:03:46;7.18;;;2.00;;
77726;SDS011;68312;53.502;10.030;2023-07-22T08:06:12;5.38;;;2.05;;
77726;SDS011;68312;53.502;10.030;2023-07-22T08:08:38;3.15;;;1.40;;
77726;SDS011;68312;53.502;10.030;2023-07-22T08:13:31;4.68;;;1.20;;
77726;SDS011;68312;53.502;10.030;2023-07-22T08:15:58;2.63;;;1.50;;
77726;SDS011;68312;53.502;10.030;2023-07-22T08:18:24;2.00;;;0.90;;
77726;SDS011;68312;53.502;10.030;2023-07-22T08:20:52;3.97;;;1.40;;
77726;SDS011;68312;53.502;10.030;2023-07-22T08:23:20;2.63;;;1.10;;
77726;SDS011;68312;53.502;10.030;2023-07-22T08:25:46;2.42;;;1.15;;
77726;SDS011;68312;53.502;10.030;2023-07-22T08:28:12;5.05;;;1.42;;
77726;SDS011;68312;53.502;10.030;2023-07-22T08:30:37;4.30;;;1.02;;
77726;SDS011;68312;53.502;10.030;2023-07-22T08:33:05;5.20;;;1.20;;
77726;SDS011;68312;53.502;10.030;2023-07-22T08:35:34;3.15;;;1.15;;
77726;SDS011;68312;53.502;10.030;2023-07-22T08:38:01;3.60;;;1.80;;
77726;SDS011;68312;53.502;10.030;2023-07-22T08:40:27;3.15;;;1.10;;
77726;SDS011;68312;53.502;10.030;2023-07-22T08:42:58;2.20;;;1.02;;
77726;SDS011;68312;53.502;10.030;2023-07-22T08:45:25;2.30;;;0.90;;
77726;SDS011;68312;53.502;10.030;2023-07-22T08:48:10;3.10;;;1.27;;
77726;SDS011;68312;53.502;10.030;2023-07-22T08:53:35;2.58;;;1.00;;
77726;SDS011;68312;53.502;10.030;2023-07-22T08:56:01;3.47;;;1.08;;
77726;SDS011;68312;53.502;10.030;2023-07-22T08:58:28;3.13;;;1.00;;
77726;SDS011;68312;53.502;10.030;2023-07-22T09:00:55;2.22;;;0.90;;
77726;SDS011;68312;53.502;10.030;2023-07-22T09:03:21;4.15;;;0.98;;
77726;SDS011;68312;53.502;10.030;2023-07-22T09:05:47;2.25;;;0.88;;
77726;SDS011;68312;53.502;10.030;2023-07-22T09:08:13;2.67;;;0.75;;
77726;SDS011;68312;53.502;10.030;2023-07-22T09:10:38;1.40;;;0.60;;
77726;SDS011;68312;53.502;10.030;2023-07-22T09:13:04;1.45;;;0.60;;
77726;SDS011;68312;53.502;10.030;2023-07-22T09:15:31;3.95;;;1.02;;
77726;SDS011;68312;53.502;10.030;2023-07-22T09:18:01;3.78;;;1.10;;
77726;SDS011;68312;53.502;10.030;2023-07-22T09:20:28;5.38;;;2.30;;
77726;SDS011;68312;53.502;10.030;2023-07-22T09:22:54;2.80;;;1.58;;
77726;SDS011;68312;53.502;10.030;2023-07-22T09:25:20;5.07;;;1.60;;
77726;SDS011;68312;53.502;10.030;2023-07-22T09:27:52;3.22;;;1.17;;
77726;SDS011;68312;53.502;10.030;2023-07-22T09:33:05;4.97;;;1.25;;
77726;SDS011;68312;53.502;10.030;2023-07-22T09:35:47;5.93;;;1.27;;
77726;SDS011;68312;53.502;10.030;2023-07-22T09:38:14;4.50;;;1.00;;
77726;SDS011;68312;53.502;10.030;2023-07-22T09:40:49;4.28;;;0.95;;
77726;SDS011;68312;53.502;10.030;2023-07-22T09:43:14;3.47;;;1.13;;
77726;SDS011;68312;53.502;10.030;2023-07-22T09:45:40;2.10;;;0.82;;
77726;SDS011;68312;53.502;10.030;2023-07-22T09:48:05;3.35;;;1.17;;
77726;SDS011;68312;53.502;10.030;2023-07-22T09:50:33;3.35;;;1.33;;
77726;SDS011;68312;53.502;10.030;2023-07-22T09:53:01;1.60;;;1.00;;
77726;SDS011;68312;53.502;10.030;2023-07-22T09:55:29;3.05;;;1.10;;
77726;SDS011;68312;53.502;10.030;2023-07-22T10:00:34;2.03;;;1.08;;
77726;SDS011;68312;53.502;10.030;2023-07-22T10:03:02;2.80;;;0.95;;
77726;SDS011;68312;53.502;10.030;2023-07-22T10:05:34;2.35;;;1.20;;
77726;SDS011;68312;53.502;10.030;2023-07-22T10:08:04;2.60;;;1.13;;
77726;SDS011;68312;53.502;10.030;2023-07-22T10:10:35;3.45;;;1.45;;
77726;SDS011;68312;53.502;10.030;2023-07-22T10:13:03;2.35;;;1.10;;
77726;SDS011;68312;53.502;10.030;2023-07-22T10:15:31;2.42;;;1.08;;
77726;SDS011;68312;53.502;10.030;2023-07-22T10:17:59;1.83;;;0.80;;
77726;SDS011;68312;53.502;10.030;2023-07-22T10:20:32;2.13;;;1.00;;
77726;SDS011;68312;53.502;10.030;2023-07-22T10:23:01;2.53;;;0.90;;
77726;SDS011;68312;53.502;10.030;2023-07-22T10:25:28;3.05;;;0.93;;
77726;SDS011;68312;53.502;10.030;2023-07-22T10:27:54;1.55;;;0.77;;
77726;SDS011;68312;53.502;10.030;2023-07-22T10:30:20;3.40;;;1.13;;
77726;SDS011;68312;53.502;10.030;2023-07-22T10:32:46;1.90;;;0.88;;
77726;SDS011;68312;53.502;10.030;2023-07-22T10:38:11;2.25;;;0.95;;
77726;SDS011;68312;53.502;10.030;2023-07-22T10:43:16;2.42;;;0.90;;
77726;SDS011;68312;53.502;10.030;2023-07-22T10:45:53;1.60;;;0.80;;
77726;SDS011;68312;53.502;10.030;2023-07-22T10:48:22;2.95;;;0.90;;
77726;SDS011;68312;53.502;10.030;2023-07-22T10:50:53;1.98;;;0.70;;
77726;SDS011;68312;53.502;10.030;2023-07-22T11:06:58;3.35;;;1.33;;
77726;SDS011;68312;53.502;10.030;2023-07-22T11:11:55;3.17;;;1.13;;
77726;SDS011;68312;53.502;10.030;2023-07-22T11:14:25;3.15;;;1.20;;
77726;SDS011;68312;53.502;10.030;2023-07-22T11:16:52;2.88;;;1.27;;
77726;SDS011;68312;53.502;10.030;2023-07-22T11:19:19;2.42;;;1.25;;
77726;SDS011;68312;53.502;10.030;2023-07-22T11:21:47;2.92;;;1.30;;
77726;SDS011;68312;53.502;10.030;2023-07-22T11:24:17;3.00;;;1.33;;
77726;SDS011;68312;53.502;10.030;2023-07-22T11:26:45;3.10;;;1.20;;
77726;SDS011;68312;53.502;10.030;2023-07-22T11:29:12;4.80;;;1.50;;
77726;SDS011;68312;53.502;10.030;2023-07-22T11:31:40;2.92;;;1.30;;
77726;SDS011;68312;53.502;10.030;2023-07-22T11:34:14;3.97;;;1.33;;
77726;SDS011;68312;53.502;10.030;2023-07-22T11:36:42;5.75;;;1.98;;
77726;SDS011;68312;53.502;10.030;2023-07-22T11:39:13;4.50;;;1.60;;
77726;SDS011;68312;53.502;10.030;2023-07-22T11:41:43;4.15;;;1.50;;
77726;SDS011;68312;53.502;10.030;2023-07-22T11:44:11;3.38;;;1.70;;
77726;SDS011;68312;53.502;10.030;2023-07-22T11:52:02;2.75;;;1.33;;
77726;SDS011;68312;53.502;10.030;2023-07-22T11:54:39;4.65;;;2.17;;
77726;SDS011;68312;53.502;10.030;2023-07-22T11:57:14;6.00;;;2.28;;
77726;SDS011;68312;53.502;10.030;2023-07-22T12:02:35;4.20;;;1.90;;
77726;SDS011;68312;53.502;10.030;2023-07-22T12:05:02;5.28;;;2.25;;
77726;SDS011;68312;53.502;10.030;2023-07-22T12:10:01;5.72;;;2.55;;
77726;SDS011;68312;53.502;10.030;2023-07-22T12:12:37;5.28;;;2.22;;
77726;SDS011;68312;53.502;10.030;2023-07-22T12:15:13;7.30;;;2.58;;
77726;SDS011;68312;53.502;10.030;2023-07-22T12:20:11;4.65;;;2.20;;
77726;SDS011;68312;53.502;10.030;2023-07-22T12:22:37;8.77;;;2.50;;
77726;SDS011;68312;53.502;10.030;2023-07-22T12:25:03;6.45;;;2.35;;
77726;SDS011;68312;53.502;10.030;2023-07-22T12:27:30;4.75;;;2.53;;
77726;SDS011;68312;53.502;10.030;2023-07-22T12:29:55;3.42;;;2.15;;
77726;SDS011;68312;53.502;10.030;2023-07-22T12:32:24;5.55;;;2.55;;
77726;SDS011;68312;53.502;10.030;2023-07-22T12:34:49;4.00;;;2.17;;
77726;SDS011;68312;53.502;10.030;2023-07-22T12:37:14;4.32;;;2.13;;
77726;SDS011;68312;53.502;10.030;2023-07-22T12:39:40;4.15;;;2.10;;
77726;SDS011;68312;53.502;10.030;2023-07-22T12:42:05;6.18;;;3.13;;
77726;SDS011;68312;53.502;10.030;2023-07-22T12:44:30;4.78;;;2.60;;
77726;SDS011;68312;53.502;10.030;2023-07-22T12:46:56;6.30;;;3.28;;
77726;SDS011;68312;53.502;10.030;2023-07-22T12:49:21;5.53;;;3.10;;
77726;SDS011;68312;53.502;10.030;2023-07-22T12:51:47;5.35;;;2.78;;
77726;SDS011;68312;53.502;10.030;2023-07-22T12:54:12;5.78;;;2.75;;
77726;SDS011;68312;53.502;10.030;2023-07-22T12:56:38;6.35;;;2.65;;
77726;SDS011;68312;53.502;10.030;2023-07-22T12:59:03;6.07;;;2.83;;
77726;SDS011;68312;53.502;10.030;2023-07-22T13:01:28;10.32;;;3.45;;
77726;SDS011;68312;53.502;10.030;2023-07-22T13:03:54;5.55;;;2.60;;
77726;SDS011;68312;53.502;10.030;2023-07-22T13:06:19;7.55;;;3.00;;
77726;SDS011;68312;53.502;10.030;2023-07-22T13:08:44;6.30;;;3.13;;
77726;SDS011;68312;53.502;10.030;2023-07-22T13:11:10;6.18;;;3.17;;
77726;SDS011;68312;53.502;10.030;2023-07-22T13:13:35;5.22;;;2.90;;
77726;SDS011;68312;53.502;10.030;2023-07-22T13:16:01;7.18;;;3.33;;
77726;SDS011;68312;53.502;10.030;2023-07-22T13:18:26;5.55;;;3.05;;
77726;SDS011;68312;53.502;10.030;2023-07-22T13:20:51;6.45;;;2.97;;
77726;SDS011;68312;53.502;10.030;2023-07-22T13:23:17;6.18;;;3.28;;
77726;SDS011;68312;53.502;10.030;2023-07-22T13:25:42;5.47;;;3.70;;
77726;SDS011;68312;53.502;10.030;2023-07-22T13:28:08;7.43;;;3.22;;
77726;SDS011;68312;53.502;10.030;2023-07-22T13:30:34;9.23;;;4.03;;
77726;SDS011;68312;53.502;10.030;2023-07-22T13:32:59;7.32;;;3.78;;
77726;SDS011;68312;53.502;10.030;2023-07-22T13:35:25;7.47;;;3.80;;
77726;SDS011;68312;53.502;10.030;2023-07-22T13:37:50;8.30;;;3.67;;
77726;SDS011;68312;53.502;10.030;2023-07-22T13:40:15;8.40;;;3.90;;
77726;SDS011;68312;53.502;10.030;2023-07-22T13:42:41;5.25;;;3.15;;
77726;SDS011;68312;53.502;10.030;2023-07-22T13:45:06;7.40;;;2.85;;
77726;SDS011;68312;53.502;10.030;2023-07-22T13:47:32;8.02;;;2.97;;
77726;SDS011;68312;53.502;10.030;2023-07-22T13:49:57;5.95;;;2.97;;
77726;SDS011;68312;53.502;10.030;2023-07-22T13:52:23;5.25;;;2.83;;
77726;SDS011;68312;53.502;10.030;2023-07-22T13:54:49;6.22;;;2.95;;
77726;SDS011;68312;53.502;10.030;2023-07-22T13:57:15;6.47;;;2.50;;
77726;SDS011;68312;53.502;10.030;2023-07-22T13:59:40;4.55;;;2.38;;
77726;SDS011;68312;53.502;10.030;2023-07-22T14:02:05;7.28;;;2.88;;
77726;SDS011;68312;53.502;10.030;2023-07-22T14:04:31;6.85;;;2.50;;
77726;SDS011;68312;53.502;10.030;2023-07-22T14:06:56;4.88;;;2.42;;
77726;SDS011;68312;53.502;10.030;2023-07-22T14:09:22;4.35;;;2.38;;
77726;SDS011;68312;53.502;10.030;2023-07-22T14:11:47;5.05;;;2.65;;
77726;SDS011;68312;53.502;10.030;2023-07-22T14:14:12;6.43;;;3.13;;
77726;SDS011;68312;53.502;10.030;2023-07-22T14:16:38;6.00;;;2.67;;
77726;SDS011;68312;53.502;10.030;2023-07-22T14:19:03;6.63;;;3.22;;
77726;SDS011;68312;53.502;10.030;2023-07-22T14:21:28;5.32;;;2.42;;
77726;SDS011;68312;53.502;10.030;2023-07-22T14:23:54;6.07;;;2.67;;
77726;SDS011;68312;53.502;10.030;2023-07-22T14:26:20;4.18;;;2.33;;
77726;SDS011;68312;53.502;10.030;2023-07-22T14:28:45;6.15;;;2.70;;
77726;SDS011;68312;53.502;10.030;2023-07-22T14:31:11;5.30;;;2.60;;
77726;SDS011;68312;53.502;10.030;2023-07-22T14:33:37;8.57;;;3.00;;
77726;SDS011;68312;53.502;10.030;2023-07-22T14:36:02;7.75;;;2.72;;
77726;SDS011;68312;53.502;10.030;2023-07-22T14:38:28;4.85;;;2.38;;
77726;SDS011;68312;53.502;10.030;2023-07-22T14:40:53;5.95;;;2.58;;
77726;SDS011;68312;53.502;10.030;2023-07-22T14:43:19;4.47;;;2.63;;
77726;SDS011;68312;53.502;10.030;2023-07-22T14:45:44;7.93;;;3.08;;
77726;SDS011;68312;53.502;10.030;2023-07-22T14:48:09;4.03;;;2.47;;
77726;SDS011;68312;53.502;10.030;2023-07-22T14:50:35;5.05;;;2.70;;
77726;SDS011;68312;53.502;10.030;2023-07-22T14:53:00;7.13;;;2.80;;
77726;SDS011;68312;53.502;10.030;2023-07-22T14:55:26;6.35;;;2.97;;
77726;SDS011;68312;53.502;10.030;2023-07-22T14:57:51;5.80;;;2.92;;
77726;SDS011;68312;53.502;10.030;2023-07-22T15:00:17;4.82;;;2.55;;
77726;SDS011;68312;53.502;10.030;2023-07-22T15:02:43;4.20;;;2.60;;
77726;SDS011;68312;53.502;10.030;2023-07-22T15:05:08;5.43;;;2.30;;
77726;SDS011;68312;53.502;10.030;2023-07-22T15:07:34;5.93;;;2.30;;
77726;SDS011;68312;53.502;10.030;2023-07-22T15:09:59;6.68;;;2.90;;
77726;SDS011;68312;53.502;10.030;2023-07-22T15:12:24;4.72;;;2.95;;
77726;SDS011;68312;53.502;10.030;2023-07-22T15:14:50;5.88;;;4.05;;
77726;SDS011;68312;53.502;10.030;2023-07-22T15:17:15;6.95;;;3.33;;
77726;SDS011;68312;53.502;10.030;2023-07-22T15:19:41;6.53;;;2.92;;
77726;SDS011;68312;53.502;10.030;2023-07-22T15:22:06;4.00;;;2.67;;